Aviation Digital Data Service (ADDS)

Output produced by METARs form (0231 UTC 06 December 2020)
found at http://aviationweather.gov/metar/data/
 
METAR text: KORD 060151Z 10006KT 10SM SCT035 BKN250 02/M03 A3011 RMK AO2 SLP202 T00171033
Conditions at: KORD (CHICAGO O'HARE , IL, US) observed 0151 UTC 06 December 2020
Temperature: 1.7°C (35°F)
Dewpoint: -3.3°C (26°F) [RH = 69%]
Pressure (altimeter): 30.11 inches Hg (1019.7 mb)
[Sea-level pressure: 1020.2 mb]
Winds: from the E (100 degrees) at 7 MPH (6 knots; 3.1 m/s)
Visibility: 10 or more miles (16+ km)
Ceiling: 25000 feet AGL
Clouds: scattered clouds at 3500 feet AGL
broken clouds at 25000 feet AGL
Weather: no significant weather observed at this time

METAR text: KORD 060051Z 07006KT 10SM SCT035 03/M03 A3012 RMK AO2 SLP205 T00281033
Conditions at: KORD (CHICAGO O'HARE , IL, US) observed 0051 UTC 06 December 2020
Temperature: 2.8°C (37°F)
Dewpoint: -3.3°C (26°F) [RH = 64%]
Pressure (altimeter): 30.12 inches Hg (1020.1 mb)
[Sea-level pressure: 1020.5 mb]
Winds: from the ENE (70 degrees) at 7 MPH (6 knots; 3.1 m/s)
Visibility: 10 or more miles (16+ km)
Ceiling: at least 12,000 feet AGL
Clouds: scattered clouds at 3500 feet AGL
Weather: no significant weather observed at this time

METAR text: KORD 052351Z 05005KT 10SM BKN036 03/M03 A3013 RMK AO2 SLP209 T00281028 10050 20022 50000
Conditions at: KORD (CHICAGO O'HARE , IL, US) observed 2351 UTC 05 December 2020
Temperature: 2.8°C (37°F)
Dewpoint: -2.8°C (27°F) [RH = 67%]
Pressure (altimeter): 30.13 inches Hg (1020.4 mb)
[Sea-level pressure: 1020.9 mb]
Winds: from the NE (50 degrees) at 6 MPH (5 knots; 2.6 m/s)
Visibility: 10 or more miles (16+ km)
Ceiling: 3600 feet AGL
Clouds: broken clouds at 3600 feet AGL
Weather: no significant weather observed at this time

METAR text: KORD 052251Z 03006KT 10SM BKN035 03/M03 A3014 RMK AO2 SLP212 T00331028
Conditions at: KORD (CHICAGO O'HARE , IL, US) observed 2251 UTC 05 December 2020
Temperature: 3.3°C (38°F)
Dewpoint: -2.8°C (27°F) [RH = 64%]
Pressure (altimeter): 30.14 inches Hg (1020.7 mb)
[Sea-level pressure: 1021.2 mb]
Winds: from the NNE (30 degrees) at 7 MPH (6 knots; 3.1 m/s)
Visibility: 10 or more miles (16+ km)
Ceiling: 3500 feet AGL
Clouds: broken clouds at 3500 feet AGL
Weather: no significant weather observed at this time

METAR text: KORD 052151Z 04008KT 10SM BKN033 03/M03 A3013 RMK AO2 SLP209 T00331028
Conditions at: KORD (CHICAGO O'HARE , IL, US) observed 2151 UTC 05 December 2020
Temperature: 3.3°C (38°F)
Dewpoint: -2.8°C (27°F) [RH = 64%]
Pressure (altimeter): 30.13 inches Hg (1020.4 mb)
[Sea-level pressure: 1020.9 mb]
Winds: from the NE (40 degrees) at 9 MPH (8 knots; 4.1 m/s)
Visibility: 10 or more miles (16+ km)
Ceiling: 3300 feet AGL
Clouds: broken clouds at 3300 feet AGL
Weather: no significant weather observed at this time

METAR text: KORD 052051Z 02006KT 10SM BKN033 04/M03 A3013 RMK AO2 SLP208 T00441033 56014
Conditions at: KORD (CHICAGO O'HARE , IL, US) observed 2051 UTC 05 December 2020
Temperature: 4.4°C (40°F)
Dewpoint: -3.3°C (26°F) [RH = 57%]
Pressure (altimeter): 30.13 inches Hg (1020.4 mb)
[Sea-level pressure: 1020.8 mb]
Winds: from the NNE (20 degrees) at 7 MPH (6 knots; 3.1 m/s)
Visibility: 10 or more miles (16+ km)
Ceiling: 3300 feet AGL
Clouds: broken clouds at 3300 feet AGL
Weather: no significant weather observed at this time

METAR text: KORD 051951Z 01006KT 10SM BKN032 04/M03 A3013 RMK AO2 SLP210 T00441033
Conditions at: KORD (CHICAGO O'HARE , IL, US) observed 1951 UTC 05 December 2020
Temperature: 4.4°C (40°F)
Dewpoint: -3.3°C (26°F) [RH = 57%]
Pressure (altimeter): 30.13 inches Hg (1020.4 mb)
[Sea-level pressure: 1021.0 mb]
Winds: from the N (10 degrees) at 7 MPH (6 knots; 3.1 m/s)
Visibility: 10 or more miles (16+ km)
Ceiling: 3200 feet AGL
Clouds: broken clouds at 3200 feet AGL
Weather: no significant weather observed at this time

METAR text: KORD 051851Z 33005KT 10SM BKN032 04/M04 A3014 RMK AO2 SLP214 T00441039
Conditions at: KORD (CHICAGO O'HARE , IL, US) observed 1851 UTC 05 December 2020
Temperature: 4.4°C (40°F)
Dewpoint: -3.9°C (25°F) [RH = 55%]
Pressure (altimeter): 30.14 inches Hg (1020.7 mb)
[Sea-level pressure: 1021.4 mb]
Winds: from the NNW (330 degrees) at 6 MPH (5 knots; 2.6 m/s)
Visibility: 10 or more miles (16+ km)
Ceiling: 3200 feet AGL
Clouds: broken clouds at 3200 feet AGL
Weather: no significant weather observed at this time

METAR text: KORD 051802Z 03007KT 10SM BKN033 BKN200 05/M03 A3017 RMK AO2 T00501028
Conditions at: KORD (CHICAGO O'HARE , IL, US) observed 1802 UTC 05 December 2020
Temperature: 5.0°C (41°F)
Dewpoint: -2.8°C (27°F) [RH = 57%]
Pressure (altimeter): 30.17 inches Hg (1021.8 mb)
Winds: from the NNE (30 degrees) at 8 MPH (7 knots; 3.6 m/s)
Visibility: 10 or more miles (16+ km)
Ceiling: 3300 feet AGL
Clouds: broken clouds at 3300 feet AGL
broken clouds at 20000 feet AGL
Weather: no significant weather observed at this time

METAR text: KORD 051751Z 36005KT 10SM BKN029 BKN200 04/M03 A3017 RMK AO2 SLP222 T00441033 10050 21017 58005
Conditions at: KORD (CHICAGO O'HARE , IL, US) observed 1751 UTC 05 December 2020
Temperature: 4.4°C (40°F)
Dewpoint: -3.3°C (26°F) [RH = 57%]
Pressure (altimeter): 30.17 inches Hg (1021.8 mb)
[Sea-level pressure: 1022.2 mb]
Winds: from the N (360 degrees) at 6 MPH (5 knots; 2.6 m/s)
Visibility: 10 or more miles (16+ km)
Ceiling: 2900 feet AGL
Clouds: broken clouds at 2900 feet AGL
broken clouds at 20000 feet AGL
Weather: no significant weather observed at this time

METAR text: KORD 051738Z VRB03KT 10SM BKN029 BKN200 05/M03 A3017 RMK AO2 T00501028
Conditions at: KORD (CHICAGO O'HARE , IL, US) observed 1738 UTC 05 December 2020
Temperature: 5.0°C (41°F)
Dewpoint: -2.8°C (27°F) [RH = 57%]
Pressure (altimeter): 30.17 inches Hg (1021.8 mb)
Winds: variable direction winds at 3 MPH (3 knots; 1.5 m/s)
Visibility: 10 or more miles (16+ km)
Ceiling: 2900 feet AGL
Clouds: broken clouds at 2900 feet AGL
broken clouds at 20000 feet AGL
Weather: no significant weather observed at this time

METAR text: KORD 051651Z 02007KT 10SM FEW027 FEW200 04/M02 A3018 RMK AO2 SLP227 T00441022
Conditions at: KORD (CHICAGO O'HARE , IL, US) observed 1651 UTC 05 December 2020
Temperature: 4.4°C (40°F)
Dewpoint: -2.2°C (28°F) [RH = 62%]
Pressure (altimeter): 30.18 inches Hg (1022.1 mb)
[Sea-level pressure: 1022.7 mb]
Winds: from the NNE (20 degrees) at 8 MPH (7 knots; 3.6 m/s)
Visibility: 10 or more miles (16+ km)
Ceiling: at least 12,000 feet AGL
Clouds: few clouds at 2700 feet AGL
few clouds at 20000 feet AGL
Weather: no significant weather observed at this time

METAR text: KORD 051551Z 01007KT 10SM FEW027 FEW200 03/M02 A3019 RMK AO2 SLP230 T00281017
Conditions at: KORD (CHICAGO O'HARE , IL, US) observed 1551 UTC 05 December 2020
Temperature: 2.8°C (37°F)
Dewpoint: -1.7°C (29°F) [RH = 72%]
Pressure (altimeter): 30.19 inches Hg (1022.4 mb)
[Sea-level pressure: 1023.0 mb]
Winds: from the N (10 degrees) at 8 MPH (7 knots; 3.6 m/s)
Visibility: 10 or more miles (16+ km)
Ceiling: at least 12,000 feet AGL
Clouds: few clouds at 2700 feet AGL
few clouds at 20000 feet AGL
Weather: no significant weather observed at this time

METAR text: KORD 051451Z 32004KT 10SM SCT027 SCT200 01/M03 A3018 RMK AO2 SLP227 T00061028 53017
Conditions at: KORD (CHICAGO O'HARE , IL, US) observed 1451 UTC 05 December 2020
Temperature: 0.6°C (33°F)
Dewpoint: -2.8°C (27°F) [RH = 78%]
Pressure (altimeter): 30.18 inches Hg (1022.1 mb)
[Sea-level pressure: 1022.7 mb]
Winds: from the NW (320 degrees) at 5 MPH (4 knots; 2.1 m/s)
Visibility: 10 or more miles (16+ km)
Ceiling: at least 12,000 feet AGL
Clouds: scattered clouds at 2700 feet AGL
scattered clouds at 20000 feet AGL
Weather: no significant weather observed at this time

METAR text: KORD 051351Z 00000KT 10SM SCT029 M01/M04 A3015 RMK AO2 SLP219 T10111039
Conditions at: KORD (CHICAGO O'HARE , IL, US) observed 1351 UTC 05 December 2020
Temperature: -1.1°C (30°F)
Dewpoint: -3.9°C (25°F) [RH = 81%]
Pressure (altimeter): 30.15 inches Hg (1021.1 mb)
[Sea-level pressure: 1021.9 mb]
Winds: calm
Visibility: 10 or more miles (16+ km)
Ceiling: at least 12,000 feet AGL
Clouds: scattered clouds at 2900 feet AGL
Weather: no significant weather observed at this time

METAR text: KORD 051251Z 32004KT 10SM BKN028 M02/M04 A3015 RMK AO2 SLP216 T10171044
Conditions at: KORD (CHICAGO O'HARE , IL, US) observed 1251 UTC 05 December 2020
Temperature: -1.7°C (29°F)
Dewpoint: -4.4°C (24°F) [RH = 82%]
Pressure (altimeter): 30.15 inches Hg (1021.1 mb)
[Sea-level pressure: 1021.6 mb]
Winds: from the NW (320 degrees) at 5 MPH (4 knots; 2.1 m/s)
Visibility: 10 or more miles (16+ km)
Ceiling: 2800 feet AGL
Clouds: broken clouds at 2800 feet AGL
Weather: no significant weather observed at this time

METAR text: KORD 051151Z 30003KT 10SM BKN028 M01/M04 A3013 RMK AO2 SLP210 T10111044 10000 21017 53014
Conditions at: KORD (CHICAGO O'HARE , IL, US) observed 1151 UTC 05 December 2020
Temperature: -1.1°C (30°F)
Dewpoint: -4.4°C (24°F) [RH = 78%]
Pressure (altimeter): 30.13 inches Hg (1020.4 mb)
[Sea-level pressure: 1021.0 mb]
Winds: from the WNW (300 degrees) at 3 MPH (3 knots; 1.5 m/s)
Visibility: 10 or more miles (16+ km)
Ceiling: 2800 feet AGL
Clouds: broken clouds at 2800 feet AGL
Weather: no significant weather observed at this time

METAR text: KORD 051051Z 34004KT 10SM BKN027 M01/M04 A3011 RMK AO2 SLP204 T10061039
Conditions at: KORD (CHICAGO O'HARE , IL, US) observed 1051 UTC 05 December 2020
Temperature: -0.6°C (31°F)
Dewpoint: -3.9°C (25°F) [RH = 78%]
Pressure (altimeter): 30.11 inches Hg (1019.7 mb)
[Sea-level pressure: 1020.4 mb]
Winds: from the NNW (340 degrees) at 5 MPH (4 knots; 2.1 m/s)
Visibility: 10 or more miles (16+ km)
Ceiling: 2700 feet AGL
Clouds: broken clouds at 2700 feet AGL
Weather: no significant weather observed at this time

METAR text: KORD 050951Z 00000KT 10SM OVC028 M01/M04 A3010 RMK AO2 SLP199 T10061039
Conditions at: KORD (CHICAGO O'HARE , IL, US) observed 0951 UTC 05 December 2020
Temperature: -0.6°C (31°F)
Dewpoint: -3.9°C (25°F) [RH = 78%]
Pressure (altimeter): 30.10 inches Hg (1019.4 mb)
[Sea-level pressure: 1019.9 mb]
Winds: calm
Visibility: 10 or more miles (16+ km)
Ceiling: 2800 feet AGL
Clouds: overcast cloud deck at 2800 feet AGL
Weather: no significant weather observed at this time

METAR text: KORD 050932Z 33004KT 10SM BKN028 M01/M04 A3010 RMK AO2 T10061044
Conditions at: KORD (CHICAGO O'HARE , IL, US) observed 0932 UTC 05 December 2020
Temperature: -0.6°C (31°F)
Dewpoint: -4.4°C (24°F) [RH = 75%]
Pressure (altimeter): 30.10 inches Hg (1019.4 mb)
Winds: from the NNW (330 degrees) at 5 MPH (4 knots; 2.1 m/s)
Visibility: 10 or more miles (16+ km)
Ceiling: 2800 feet AGL
Clouds: broken clouds at 2800 feet AGL
Weather: no significant weather observed at this time

METAR text: KORD 050851Z 34005KT 10SM SCT028 M01/M04 A3009 RMK AO2 SLP195 T10111044 53011
Conditions at: KORD (CHICAGO O'HARE , IL, US) observed 0851 UTC 05 December 2020
Temperature: -1.1°C (30°F)
Dewpoint: -4.4°C (24°F) [RH = 78%]
Pressure (altimeter): 30.09 inches Hg (1019.0 mb)
[Sea-level pressure: 1019.5 mb]
Winds: from the NNW (340 degrees) at 6 MPH (5 knots; 2.6 m/s)
Visibility: 10 or more miles (16+ km)
Ceiling: at least 12,000 feet AGL
Clouds: scattered clouds at 2800 feet AGL
Weather: no significant weather observed at this time

METAR text: KORD 050751Z 35006KT 10SM FEW030 M01/M04 A3008 RMK AO2 SLP191 T10111044
Conditions at: KORD (CHICAGO O'HARE , IL, US) observed 0751 UTC 05 December 2020
Temperature: -1.1°C (30°F)
Dewpoint: -4.4°C (24°F) [RH = 78%]
Pressure (altimeter): 30.08 inches Hg (1018.7 mb)
[Sea-level pressure: 1019.1 mb]
Winds: from the N (350 degrees) at 7 MPH (6 knots; 3.1 m/s)
Visibility: 10 or more miles (16+ km)
Ceiling: at least 12,000 feet AGL
Clouds: few clouds at 3000 feet AGL
Weather: no significant weather observed at this time

METAR text: KORD 050651Z 34007KT 10SM FEW030 M01/M04 A3006 RMK AO2 SLP185 T10061039
Conditions at: KORD (CHICAGO O'HARE , IL, US) observed 0651 UTC 05 December 2020
Temperature: -0.6°C (31°F)
Dewpoint: -3.9°C (25°F) [RH = 78%]
Pressure (altimeter): 30.06 inches Hg (1018.0 mb)
[Sea-level pressure: 1018.5 mb]
Winds: from the NNW (340 degrees) at 8 MPH (7 knots; 3.6 m/s)
Visibility: 10 or more miles (16+ km)
Ceiling: at least 12,000 feet AGL
Clouds: few clouds at 3000 feet AGL
Weather: no significant weather observed at this time

METAR text: KORD 050551Z 33005KT 10SM FEW030 00/M04 A3006 RMK AO2 SLP183 T00001039 10028 21011 400781011 51011
Conditions at: KORD (CHICAGO O'HARE , IL, US) observed 0551 UTC 05 December 2020
Temperature: 0.0°C (32°F)
Dewpoint: -3.9°C (25°F) [RH = 75%]
Pressure (altimeter): 30.06 inches Hg (1018.0 mb)
[Sea-level pressure: 1018.3 mb]
Winds: from the NNW (330 degrees) at 6 MPH (5 knots; 2.6 m/s)
Visibility: 10 or more miles (16+ km)
Ceiling: at least 12,000 feet AGL
Clouds: few clouds at 3000 feet AGL
Weather: no significant weather observed at this time

METAR text: KORD 050451Z 34005KT 10SM FEW030 M01/M03 A3005 RMK AO2 SLP182 T10061033
Conditions at: KORD (CHICAGO O'HARE , IL, US) observed 0451 UTC 05 December 2020
Temperature: -0.6°C (31°F)
Dewpoint: -3.3°C (26°F) [RH = 82%]
Pressure (altimeter): 30.05 inches Hg (1017.7 mb)
[Sea-level pressure: 1018.2 mb]
Winds: from the NNW (340 degrees) at 6 MPH (5 knots; 2.6 m/s)
Visibility: 10 or more miles (16+ km)
Ceiling: at least 12,000 feet AGL
Clouds: few clouds at 3000 feet AGL
Weather: no significant weather observed at this time

METAR text: KORD 050351Z 35007KT 10SM FEW030 00/M03 A3004 RMK AO2 SLP178 T00001028
Conditions at: KORD (CHICAGO O'HARE , IL, US) observed 0351 UTC 05 December 2020
Temperature: 0.0°C (32°F)
Dewpoint: -2.8°C (27°F) [RH = 81%]
Pressure (altimeter): 30.04 inches Hg (1017.4 mb)
[Sea-level pressure: 1017.8 mb]
Winds: from the N (350 degrees) at 8 MPH (7 knots; 3.6 m/s)
Visibility: 10 or more miles (16+ km)
Ceiling: at least 12,000 feet AGL
Clouds: few clouds at 3000 feet AGL
Weather: no significant weather observed at this time

METAR text: KORD 050251Z 34006KT 10SM FEW030 01/M03 A3002 RMK AO2 SLP173 T00061028 51020
Conditions at: KORD (CHICAGO O'HARE , IL, US) observed 0251 UTC 05 December 2020
Temperature: 0.6°C (33°F)
Dewpoint: -2.8°C (27°F) [RH = 78%]
Pressure (altimeter): 30.02 inches Hg (1016.7 mb)
[Sea-level pressure: 1017.3 mb]
Winds: from the NNW (340 degrees) at 7 MPH (6 knots; 3.1 m/s)
Visibility: 10 or more miles (16+ km)
Ceiling: at least 12,000 feet AGL
Clouds: few clouds at 3000 feet AGL
Weather: no significant weather observed at this time

METAR text: KORD 050151Z 35007KT 10SM FEW025 01/M03 A3001 RMK AO2 SLP169 T00061028
Conditions at: KORD (CHICAGO O'HARE , IL, US) observed 0151 UTC 05 December 2020
Temperature: 0.6°C (33°F)
Dewpoint: -2.8°C (27°F) [RH = 78%]
Pressure (altimeter): 30.01 inches Hg (1016.3 mb)
[Sea-level pressure: 1016.9 mb]
Winds: from the N (350 degrees) at 8 MPH (7 knots; 3.6 m/s)
Visibility: 10 or more miles (16+ km)
Ceiling: at least 12,000 feet AGL
Clouds: few clouds at 2500 feet AGL
Weather: no significant weather observed at this time

METAR text: KORD 050051Z 35006KT 10SM FEW025 02/M02 A2999 RMK AO2 SLP161 T00171017
Conditions at: KORD (CHICAGO O'HARE , IL, US) observed 0051 UTC 05 December 2020
Temperature: 1.7°C (35°F)
Dewpoint: -1.7°C (29°F) [RH = 78%]
Pressure (altimeter): 29.99 inches Hg (1015.7 mb)
[Sea-level pressure: 1016.1 mb]
Winds: from the N (350 degrees) at 7 MPH (6 knots; 3.1 m/s)
Visibility: 10 or more miles (16+ km)
Ceiling: at least 12,000 feet AGL
Clouds: few clouds at 2500 feet AGL
Weather: no significant weather observed at this time

METAR text: KORD 042351Z 01006KT 10SM FEW025 03/M01 A2996 RMK AO2 SLP153 T00281011 10078 20028 51025
Conditions at: KORD (CHICAGO O'HARE , IL, US) observed 2351 UTC 04 December 2020
Temperature: 2.8°C (37°F)
Dewpoint: -1.1°C (30°F) [RH = 75%]
Pressure (altimeter): 29.96 inches Hg (1014.6 mb)
[Sea-level pressure: 1015.3 mb]
Winds: from the N (10 degrees) at 7 MPH (6 knots; 3.1 m/s)
Visibility: 10 or more miles (16+ km)
Ceiling: at least 12,000 feet AGL
Clouds: few clouds at 2500 feet AGL
Weather: no significant weather observed at this time

METAR text: KORD 042251Z 03009KT 10SM FEW025 04/M01 A2994 RMK AO2 SLP145 T00391011
Conditions at: KORD (CHICAGO O'HARE , IL, US) observed 2251 UTC 04 December 2020
Temperature: 3.9°C (39°F)
Dewpoint: -1.1°C (30°F) [RH = 70%]
Pressure (altimeter): 29.94 inches Hg (1014.0 mb)
[Sea-level pressure: 1014.5 mb]
Winds: from the NNE (30 degrees) at 10 MPH (9 knots; 4.6 m/s)
Visibility: 10 or more miles (16+ km)
Ceiling: at least 12,000 feet AGL
Clouds: few clouds at 2500 feet AGL
Weather: no significant weather observed at this time

METAR text: KORD 042151Z 04012KT 10SM FEW055 06/M01 A2992 RMK AO2 SLP135 T00561011
Conditions at: KORD (CHICAGO O'HARE , IL, US) observed 2151 UTC 04 December 2020
Temperature: 5.6°C (42°F)
Dewpoint: -1.1°C (30°F) [RH = 62%]
Pressure (altimeter): 29.92 inches Hg (1013.3 mb)
[Sea-level pressure: 1013.5 mb]
Winds: from the NE (40 degrees) at 14 MPH (12 knots; 6.2 m/s)
Visibility: 10 or more miles (16+ km)
Ceiling: at least 12,000 feet AGL
Clouds: few clouds at 5500 feet AGL
Weather: no significant weather observed at this time

METAR text: KORD 042051Z 32009KT 10SM FEW055 07/M02 A2989 RMK AO2 SLP125 T00721022 55001
Conditions at: KORD (CHICAGO O'HARE , IL, US) observed 2051 UTC 04 December 2020
Temperature: 7.2°C (45°F)
Dewpoint: -2.2°C (28°F) [RH = 51%]
Pressure (altimeter): 29.89 inches Hg (1012.3 mb)
[Sea-level pressure: 1012.5 mb]
Winds: from the NW (320 degrees) at 10 MPH (9 knots; 4.6 m/s)
Visibility: 10 or more miles (16+ km)
Ceiling: at least 12,000 feet AGL
Clouds: few clouds at 5500 feet AGL
Weather: no significant weather observed at this time

METAR text: KORD 041951Z 28005KT 10SM FEW035 07/M02 A2986 RMK AO2 SLP116 T00721022
Conditions at: KORD (CHICAGO O'HARE , IL, US) observed 1951 UTC 04 December 2020
Temperature: 7.2°C (45°F)
Dewpoint: -2.2°C (28°F) [RH = 51%]
Pressure (altimeter): 29.86 inches Hg (1011.3 mb)
[Sea-level pressure: 1011.6 mb]
Winds: from the W (280 degrees) at 6 MPH (5 knots; 2.6 m/s)
Visibility: 10 or more miles (16+ km)
Ceiling: at least 12,000 feet AGL
Clouds: few clouds at 3500 feet AGL
Weather: no significant weather observed at this time

METAR text: KORD 041851Z 27008KT 10SM FEW035 07/M03 A2987 RMK AO2 SLP118 T00671028
Conditions at: KORD (CHICAGO O'HARE , IL, US) observed 1851 UTC 04 December 2020
Temperature: 6.7°C (44°F)
Dewpoint: -2.8°C (27°F) [RH = 51%]
Pressure (altimeter): 29.87 inches Hg (1011.6 mb)
[Sea-level pressure: 1011.8 mb]
Winds: from the W (270 degrees) at 9 MPH (8 knots; 4.1 m/s)
Visibility: 10 or more miles (16+ km)
Ceiling: at least 12,000 feet AGL
Clouds: few clouds at 3500 feet AGL
Weather: no significant weather observed at this time

METAR text: KORD 041751Z 26009KT 10SM CLR 05/M02 A2989 RMK AO2 SLP127 T00501022 10050 20006 58004
Conditions at: KORD (CHICAGO O'HARE , IL, US) observed 1751 UTC 04 December 2020
Temperature: 5.0°C (41°F)
Dewpoint: -2.2°C (28°F) [RH = 60%]
Pressure (altimeter): 29.89 inches Hg (1012.3 mb)
[Sea-level pressure: 1012.7 mb]
Winds: from the W (260 degrees) at 10 MPH (9 knots; 4.6 m/s)
Visibility: 10 or more miles (16+ km)
Ceiling: at least 12,000 feet AGL
Clouds: sky clear below 12,000 feet AGL
Weather: no significant weather observed at this time

METAR text: KORD 041651Z 27009KT 10SM CLR 03/M03 A2990 RMK AO2 SLP131 T00331033
Conditions at: KORD (CHICAGO O'HARE , IL, US) observed 1651 UTC 04 December 2020
Temperature: 3.3°C (38°F)
Dewpoint: -3.3°C (26°F) [RH = 62%]
Pressure (altimeter): 29.90 inches Hg (1012.6 mb)
[Sea-level pressure: 1013.1 mb]
Winds: from the W (270 degrees) at 10 MPH (9 knots; 4.6 m/s)
Visibility: 10 or more miles (16+ km)
Ceiling: at least 12,000 feet AGL
Clouds: sky clear below 12,000 feet AGL
Weather: no significant weather observed at this time

METAR text: KORD 041551Z 26013G17KT 10SM FEW250 03/M03 A2991 RMK AO2 SLP133 T00281033
Conditions at: KORD (CHICAGO O'HARE , IL, US) observed 1551 UTC 04 December 2020
Temperature: 2.8°C (37°F)
Dewpoint: -3.3°C (26°F) [RH = 64%]
Pressure (altimeter): 29.91 inches Hg (1013.0 mb)
[Sea-level pressure: 1013.3 mb]
Winds: from the W (260 degrees) at 15 MPH (13 knots; 6.7 m/s)
gusting to 20 MPH (17 knots; 8.7 m/s)
Visibility: 10 or more miles (16+ km)
Ceiling: at least 12,000 feet AGL
Clouds: few clouds at 25000 feet AGL
Weather: no significant weather observed at this time

METAR text: KORD 041451Z 26011KT 10SM FEW250 02/M04 A2990 RMK AO2 SLP131 T00221039 53005
Conditions at: KORD (CHICAGO O'HARE , IL, US) observed 1451 UTC 04 December 2020
Temperature: 2.2°C (36°F)
Dewpoint: -3.9°C (25°F) [RH = 64%]
Pressure (altimeter): 29.90 inches Hg (1012.6 mb)
[Sea-level pressure: 1013.1 mb]
Winds: from the W (260 degrees) at 13 MPH (11 knots; 5.7 m/s)
Visibility: 10 or more miles (16+ km)
Ceiling: at least 12,000 feet AGL
Clouds: few clouds at 25000 feet AGL
Weather: no significant weather observed at this time

Forecast for: KORD (CHICAGO O'HARE , IL, US)
Text: KORD 052327Z 0600/0706 05006KT P6SM BKN035
Forecast period: 0000 to 0700 UTC 06 December 2020
Forecast type: FROM: standard forecast or significant change
Winds: from the NE (50 degrees) at 7 MPH (6 knots; 3.1 m/s)
Visibility: 6 or more miles (10+ km)
Ceiling: 3500 feet AGL
Clouds: broken clouds at 3500 feet AGL
Weather: no significant weather forecast for this period
Text: FM060700 35004KT P6SM BKN030 OVC080
Forecast period: 0700 to 1300 UTC 06 December 2020
Forecast type: FROM: standard forecast or significant change
Winds: from the N (350 degrees) at 5 MPH (4 knots; 2.1 m/s)
Visibility: 6 or more miles (10+ km)
Ceiling: 3000 feet AGL
Clouds: broken clouds at 3000 feet AGL
overcast cloud deck at 8000 feet AGL
Weather: no significant weather forecast for this period
Text: FM061300 34006KT P6SM BKN025
Forecast period: 1300 UTC 06 December 2020 to 0600 UTC 07 December 2020
Forecast type: FROM: standard forecast or significant change
Winds: from the NNW (340 degrees) at 7 MPH (6 knots; 3.1 m/s)
Visibility: 6 or more miles (10+ km)
Ceiling: 2500 feet AGL
Clouds: broken clouds at 2500 feet AGL
Weather: no significant weather forecast for this period